Time,TemperatureF,DewpointF,PressureIn,WindDirection,WindDirectionDegrees,WindSpeedMPH,WindSpeedGustMPH,Humidity,HourlyPrecipIn,Conditions,Clouds,dailyrainin,SolarRadiationWatts/m^2,SoftwareType,DateUTC
2013-10-12 00:09:00,65.9,55.0,30.04,NE,52,0.0,-999.0,68,-99.99,,,0.00,0,weatherlink.com 1.10,2013-10-12 04:09:00,
2013-10-12 00:24:00,65.6,54.0,30.04,ENE,69,0.0,-999.0,66,-99.99,,,0.00,0,weatherlink.com 1.10,2013-10-12 04:24:00,
2013-10-12 00:39:00,65.2,52.0,30.05,NE,49,0.0,-999.0,62,-99.99,,,0.00,0,weatherlink.com 1.10,2013-10-12 04:39:00,
2013-10-12 00:54:00,65.3,52.0,30.05,NE,45,0.0,-999.0,63,-99.99,,,0.00,0,weatherlink.com 1.10,2013-10-12 04:54:00,
2013-10-12 01:09:00,65.2,52.0,30.05,ENE,61,0.0,-999.0,62,-99.99,,,0.00,0,weatherlink.com 1.10,2013-10-12 05:09:00,
2013-10-12 01:24:00,65.1,52.0,30.05,NE,43,0.0,-999.0,62,-99.99,,,0.00,0,weatherlink.com 1.10,2013-10-12 05:24:00,
2013-10-12 01:39:00,65.0,53.0,30.05,ENE,72,0.0,-999.0,65,-99.99,,,0.00,0,weatherlink.com 1.10,2013-10-12 05:39:00,
2013-10-12 01:54:00,64.7,52.0,30.05,NE,49,0.0,-999.0,63,-99.99,,,0.00,0,weatherlink.com 1.10,2013-10-12 05:54:00,
2013-10-12 02:09:00,64.3,51.0,30.05,NNE,14,0.0,-999.0,62,-99.99,,,0.00,0,weatherlink.com 1.10,2013-10-12 06:09:00,
2013-10-12 02:24:00,64.3,52.0,30.05,NNE,31,0.0,-999.0,64,-99.99,,,0.00,0,weatherlink.com 1.10,2013-10-12 06:24:00,
2013-10-12 02:39:00,64.1,51.0,30.06,NNE,28,0.0,-999.0,63,-99.99,,,0.00,0,weatherlink.com 1.10,2013-10-12 06:39:00,
2013-10-12 02:55:00,63.8,50.0,30.06,ENE,62,0.0,-999.0,61,-99.99,,,0.00,0,weatherlink.com 1.10,2013-10-12 06:55:00,
2013-10-12 03:10:00,63.7,48.0,30.06,NNE,32,0.0,-999.0,58,-99.99,,,0.00,0,weatherlink.com 1.10,2013-10-12 07:10:00,
2013-10-12 03:24:00,63.2,48.0,30.05,NE,36,0.0,-999.0,57,-99.99,,,0.00,0,weatherlink.com 1.10,2013-10-12 07:24:00,
2013-10-12 03:39:00,62.7,47.0,30.05,NNE,21,0.0,-999.0,58,-99.99,,,0.00,0,weatherlink.com 1.10,2013-10-12 07:39:00,
2013-10-12 03:54:00,62.4,49.0,30.05,North,355,0.0,-999.0,61,-99.99,,,0.00,0,weatherlink.com 1.10,2013-10-12 07:54:00,
2013-10-12 04:09:00,62.3,48.0,30.05,NE,39,0.0,-999.0,61,-99.99,,,0.00,0,weatherlink.com 1.10,2013-10-12 08:09:00,
2013-10-12 04:24:00,62.1,48.0,30.06,North,355,0.0,-999.0,60,-99.99,,,0.00,0,weatherlink.com 1.10,2013-10-12 08:24:00,
2013-10-12 04:39:00,61.9,47.0,30.07,North,5,0.0,-999.0,59,-99.99,,,0.00,0,weatherlink.com 1.10,2013-10-12 08:39:00,
2013-10-12 04:54:00,61.8,46.0,30.07,NE,44,0.0,-999.0,57,-99.99,,,0.00,0,weatherlink.com 1.10,2013-10-12 08:54:00,
2013-10-12 05:09:00,61.5,45.0,30.08,North,9,0.0,-999.0,55,-99.99,,,0.00,0,weatherlink.com 1.10,2013-10-12 09:09:00,
2013-10-12 05:24:00,61.3,44.0,30.08,North,355,0.0,-999.0,53,-99.99,,,0.00,0,weatherlink.com 1.10,2013-10-12 09:24:00,
2013-10-12 05:39:00,61.0,43.0,30.08,NE,47,0.0,-999.0,52,-99.99,,,0.00,0,weatherlink.com 1.10,2013-10-12 09:39:00,
2013-10-12 05:54:00,60.8,43.0,30.08,North,11,0.0,-999.0,53,-99.99,,,0.00,0,weatherlink.com 1.10,2013-10-12 09:54:00,
2013-10-12 06:09:00,60.4,42.0,30.08,WNW,300,0.0,-999.0,52,-99.99,,,0.00,0,weatherlink.com 1.10,2013-10-12 10:09:00,
2013-10-12 06:25:00,60.2,42.0,30.09,NNE,12,0.0,-999.0,51,-99.99,,,0.00,0,weatherlink.com 1.10,2013-10-12 10:25:00,
2013-10-12 06:40:00,59.8,42.0,30.09,ENE,63,0.0,-999.0,52,-99.99,,,0.00,0,weatherlink.com 1.10,2013-10-12 10:40:00,
2013-10-12 06:55:00,59.8,41.0,30.09,ENE,71,0.0,-999.0,51,-99.99,,,0.00,0,weatherlink.com 1.10,2013-10-12 10:55:00,
2013-10-12 07:10:00,59.8,42.0,30.09,NNE,31,0.0,-999.0,52,-99.99,,,0.00,5,weatherlink.com 1.10,2013-10-12 11:10:00,
2013-10-12 07:25:00,59.5,41.0,30.09,North,360,0.0,-999.0,51,-99.99,,,0.00,16,weatherlink.com 1.10,2013-10-12 11:25:00,
2013-10-12 07:40:00,59.7,42.0,30.10,North,360,0.0,-999.0,52,-99.99,,,0.00,33,weatherlink.com 1.10,2013-10-12 11:40:00,
2013-10-12 07:55:00,60.4,43.0,30.11,NE,34,0.0,-999.0,53,-99.99,,,0.00,49,weatherlink.com 1.10,2013-10-12 11:55:00,
2013-10-12 08:10:00,61.0,43.0,30.12,ENE,57,0.0,-999.0,52,-99.99,,,0.00,111,weatherlink.com 1.10,2013-10-12 12:10:00,
2013-10-12 08:25:00,61.6,44.0,30.12,ENE,61,0.0,-999.0,52,-99.99,,,0.00,105,weatherlink.com 1.10,2013-10-12 12:25:00,
2013-10-12 08:40:00,61.5,43.0,30.12,ENE,70,0.0,-999.0,52,-99.99,,,0.00,47,weatherlink.com 1.10,2013-10-12 12:40:00,
2013-10-12 08:55:00,61.6,44.0,30.12,ENE,68,0.0,-999.0,52,-99.99,,,0.00,53,weatherlink.com 1.10,2013-10-12 12:55:00,
2013-10-12 09:10:00,61.7,44.0,30.12,ENE,61,0.0,-999.0,52,-99.99,,,0.00,53,weatherlink.com 1.10,2013-10-12 13:10:00,
2013-10-12 09:25:00,61.9,44.0,30.13,NNE,25,0.0,-999.0,53,-99.99,,,0.00,111,weatherlink.com 1.10,2013-10-12 13:25:00,
2013-10-12 09:40:00,62.0,45.0,30.13,NE,46,0.0,-999.0,55,-99.99,,,0.00,113,weatherlink.com 1.10,2013-10-12 13:40:00,
2013-10-12 09:55:00,62.7,46.0,30.14,North,5,0.0,-999.0,55,-99.99,,,0.00,234,weatherlink.com 1.10,2013-10-12 13:55:00,
2013-10-12 10:10:00,63.8,47.0,30.15,North,5,0.0,-999.0,54,-99.99,,,0.00,248,weatherlink.com 1.10,2013-10-12 14:10:00,
2013-10-12 10:25:00,64.6,47.0,30.14,NNE,15,0.0,-999.0,54,-99.99,,,0.00,288,weatherlink.com 1.10,2013-10-12 14:25:00,
2013-10-12 10:40:00,65.8,48.0,30.15,ENE,69,0.0,-999.0,53,-99.99,,,0.00,295,weatherlink.com 1.10,2013-10-12 14:40:00,
2013-10-12 10:55:00,66.2,49.0,30.15,NNE,30,0.0,-999.0,54,-99.99,,,0.00,315,weatherlink.com 1.10,2013-10-12 14:55:00,
2013-10-12 11:10:00,66.6,49.0,30.16,NE,42,0.0,-999.0,53,-99.99,,,0.00,267,weatherlink.com 1.10,2013-10-12 15:10:00,
2013-10-12 11:25:00,68.7,50.0,30.16,ENE,74,0.0,-999.0,52,-99.99,,,0.00,707,weatherlink.com 1.10,2013-10-12 15:25:00,
2013-10-12 11:40:00,69.5,50.0,30.16,ENE,78,0.0,-999.0,50,-99.99,,,0.00,274,weatherlink.com 1.10,2013-10-12 15:40:00,
2013-10-12 11:55:00,68.8,51.0,30.16,NNE,20,0.0,-999.0,53,-99.99,,,0.00,380,weatherlink.com 1.10,2013-10-12 15:55:00,
2013-10-12 12:11:00,69.6,51.0,30.15,ENE,76,0.0,-999.0,52,-99.99,,,0.00,309,weatherlink.com 1.10,2013-10-12 16:11:00,
2013-10-12 12:26:00,69.9,51.0,30.15,NNE,15,0.0,-999.0,52,-99.99,,,0.00,682,weatherlink.com 1.10,2013-10-12 16:26:00,
2013-10-12 12:41:00,70.7,54.0,30.13,NE,37,0.0,-999.0,55,-99.99,,,0.00,657,weatherlink.com 1.10,2013-10-12 16:41:00,
2013-10-12 12:56:00,71.1,54.0,30.13,ENE,77,0.0,-999.0,55,-99.99,,,0.00,657,weatherlink.com 1.10,2013-10-12 16:56:00,
2013-10-12 13:11:00,71.0,55.0,30.13,North,350,0.0,-999.0,57,-99.99,,,0.00,657,weatherlink.com 1.10,2013-10-12 17:11:00,
2013-10-12 13:26:00,71.7,55.0,30.13,NE,52,0.0,-999.0,57,-99.99,,,0.00,622,weatherlink.com 1.10,2013-10-12 17:26:00,
2013-10-12 13:41:00,71.0,55.0,30.14,East,90,0.0,-999.0,58,-99.99,,,0.00,700,weatherlink.com 1.10,2013-10-12 17:41:00,
2013-10-12 13:56:00,70.4,55.0,30.14,NNE,14,0.0,-999.0,59,-99.99,,,0.00,513,weatherlink.com 1.10,2013-10-12 17:56:00,
2013-10-12 14:11:00,71.0,55.0,30.14,East,95,0.0,-999.0,58,-99.99,,,0.00,446,weatherlink.com 1.10,2013-10-12 18:11:00,
2013-10-12 14:26:00,70.2,54.0,30.14,East,83,0.0,-999.0,56,-99.99,,,0.00,239,weatherlink.com 1.10,2013-10-12 18:26:00,
2013-10-12 14:41:00,70.1,53.0,30.14,NNW,342,0.0,-999.0,55,-99.99,,,0.00,255,weatherlink.com 1.10,2013-10-12 18:41:00,
2013-10-12 14:56:00,70.4,53.0,30.14,East,82,0.0,-999.0,55,-99.99,,,0.00,631,weatherlink.com 1.10,2013-10-12 18:56:00,
2013-10-12 15:11:00,71.0,53.0,30.15,East,83,0.0,-999.0,54,-99.99,,,0.00,320,weatherlink.com 1.10,2013-10-12 19:11:00,
2013-10-12 15:25:00,71.4,54.0,30.15,ENE,75,0.0,-999.0,54,-99.99,,,0.00,367,weatherlink.com 1.10,2013-10-12 19:25:00,
2013-10-12 15:40:00,72.2,53.0,30.14,NE,46,0.0,-999.0,52,-99.99,,,0.00,448,weatherlink.com 1.10,2013-10-12 19:40:00,
2013-10-12 15:55:00,72.9,54.0,30.15,SE,140,0.0,-999.0,51,-99.99,,,0.00,427,weatherlink.com 1.10,2013-10-12 19:55:00,
2013-10-12 16:10:00,72.0,58.0,30.15,East,90,0.0,-999.0,62,-99.99,,,0.00,76,weatherlink.com 1.10,2013-10-12 20:10:00,
2013-10-12 16:25:00,70.5,58.0,30.16,East,89,0.0,-999.0,65,-99.99,,,0.00,83,weatherlink.com 1.10,2013-10-12 20:25:00,
2013-10-12 16:40:00,69.4,58.0,30.16,ENE,60,0.0,-999.0,68,-99.99,,,0.00,113,weatherlink.com 1.10,2013-10-12 20:40:00,
2013-10-12 16:55:00,68.3,58.0,30.16,ENE,67,0.0,-999.0,70,-99.99,,,0.00,58,weatherlink.com 1.10,2013-10-12 20:55:00,
2013-10-12 17:10:00,67.7,57.0,30.16,NE,47,0.0,-999.0,69,-99.99,,,0.00,60,weatherlink.com 1.10,2013-10-12 21:10:00,
2013-10-12 17:26:00,67.5,57.0,30.17,SE,140,0.0,-999.0,70,-99.99,,,0.00,56,weatherlink.com 1.10,2013-10-12 21:26:00,
2013-10-12 17:41:00,66.8,58.0,30.17,ESE,103,0.0,-999.0,73,-99.99,,,0.00,33,weatherlink.com 1.10,2013-10-12 21:41:00,
2013-10-12 17:56:00,65.9,58.0,30.17,ENE,64,0.0,-999.0,75,-99.99,,,0.00,18,weatherlink.com 1.10,2013-10-12 21:56:00,
2013-10-12 18:11:00,64.9,57.0,30.17,ESE,105,0.0,-999.0,76,-99.99,,,0.00,7,weatherlink.com 1.10,2013-10-12 22:11:00,
2013-10-12 18:26:00,64.1,57.0,30.18,East,79,0.0,-999.0,77,-99.99,,,0.00,0,weatherlink.com 1.10,2013-10-12 22:26:00,
2013-10-12 18:41:00,64.0,57.0,30.18,SE,142,0.0,-999.0,77,-99.99,,,0.00,0,weatherlink.com 1.10,2013-10-12 22:41:00,
2013-10-12 18:56:00,64.0,57.0,30.19,SSE,159,0.0,-999.0,77,-99.99,,,0.00,0,weatherlink.com 1.10,2013-10-12 22:56:00,
2013-10-12 19:11:00,63.9,56.0,30.20,SE,144,0.0,-999.0,76,-99.99,,,0.00,0,weatherlink.com 1.10,2013-10-12 23:11:00,
2013-10-12 19:26:00,63.9,55.0,30.20,ENE,67,0.0,-999.0,73,-99.99,,,0.00,0,weatherlink.com 1.10,2013-10-12 23:26:00,
2013-10-12 19:41:00,64.8,53.0,30.20,ENE,62,0.0,-999.0,65,-99.99,,,0.00,0,weatherlink.com 1.10,2013-10-12 23:41:00,
2013-10-12 19:56:00,65.0,54.0,30.21,East,98,0.0,-999.0,67,-99.99,,,0.00,0,weatherlink.com 1.10,2013-10-12 23:56:00,
2013-10-12 20:11:00,64.6,55.0,30.21,NE,55,0.0,-999.0,70,-99.99,,,0.00,0,weatherlink.com 1.10,2013-10-13 00:11:00,
2013-10-12 20:26:00,64.3,55.0,30.22,ENE,57,0.0,-999.0,72,-99.99,,,0.00,0,weatherlink.com 1.10,2013-10-13 00:26:00,
2013-10-12 20:41:00,64.1,55.0,30.22,ENE,76,0.0,-999.0,73,-99.99,,,0.00,0,weatherlink.com 1.10,2013-10-13 00:41:00,
2013-10-12 20:56:00,64.0,55.0,30.23,NE,42,0.0,-999.0,73,-99.99,,,0.00,0,weatherlink.com 1.10,2013-10-13 00:56:00,
2013-10-12 21:11:00,63.7,55.0,30.24,NNE,33,0.0,-999.0,74,-99.99,,,0.00,0,weatherlink.com 1.10,2013-10-13 01:11:00,
2013-10-12 21:26:00,63.6,56.0,30.24,ENE,61,0.0,-999.0,75,-99.99,,,0.00,0,weatherlink.com 1.10,2013-10-13 01:26:00,
2013-10-12 21:41:00,63.6,56.0,30.24,NE,53,0.0,-999.0,75,-99.99,,,0.00,0,weatherlink.com 1.10,2013-10-13 01:41:00,
2013-10-12 21:56:00,63.5,55.0,30.24,ENE,64,0.0,-999.0,75,-99.99,,,0.00,0,weatherlink.com 1.10,2013-10-13 01:56:00,
2013-10-12 22:11:00,63.6,55.0,30.25,ENE,61,0.0,-999.0,74,-99.99,,,0.00,0,weatherlink.com 1.10,2013-10-13 02:11:00,
2013-10-12 22:26:00,63.5,55.0,30.25,ENE,64,0.0,-999.0,74,-99.99,,,0.00,0,weatherlink.com 1.10,2013-10-13 02:26:00,
2013-10-12 22:41:00,63.4,55.0,30.25,NE,38,0.0,-999.0,74,-99.99,,,0.00,0,weatherlink.com 1.10,2013-10-13 02:41:00,
2013-10-12 22:56:00,63.0,55.0,30.25,ENE,61,0.0,-999.0,74,-99.99,,,0.00,0,weatherlink.com 1.10,2013-10-13 02:56:00,
2013-10-12 23:11:00,62.8,54.0,30.25,ENE,61,0.0,-999.0,73,-99.99,,,0.00,0,weatherlink.com 1.10,2013-10-13 03:11:00,
2013-10-12 23:26:00,62.7,54.0,30.25,ENE,74,0.0,-999.0,73,-99.99,,,0.00,0,weatherlink.com 1.10,2013-10-13 03:26:00,
2013-10-12 23:41:00,62.4,54.0,30.25,ENE,63,0.0,-999.0,73,-99.99,,,0.00,0,weatherlink.com 1.10,2013-10-13 03:41:00,
2013-10-12 23:56:00,62.0,54.0,30.25,NE,53,0.0,-999.0,74,-99.99,,,0.00,0,weatherlink.com 1.10,2013-10-13 03:56:00,